Time;durP1;ratioP1;P1;durP2;ratioP2;P2;SDS_P1;SDS_P2;PMS_P1;PMS_P2;Temp;Humidity;BMP_temperature;BMP_pressure;BME280_temperature;BME280_humidity;BME280_pressure;Samples;Min_cycle;Max_cycle;Signal;HPM_P1;HPM_P2
2023/10/22 00:00:51;;;;;;;2.80;0.68;;;;;;;;;;6336200;22;20347;-78
2023/10/22 00:03:17;;;;;;;2.42;0.50;;;;;;;;;;6336828;22;20095;-78
2023/10/22 00:05:43;;;;;;;1.17;0.43;;;;;;;;;;6337212;22;20056;-78
2023/10/22 00:08:09;;;;;;;1.23;0.40;;;;;;;;;;6282802;22;20027;-78
2023/10/22 00:10:35;;;;;;;1.33;0.30;;;;;;;;;;6283449;22;20018;-78
2023/10/22 00:13:01;;;;;;;1.42;0.60;;;;;;;;;;6337317;22;20023;-78
2023/10/22 00:15:27;;;;;;;2.80;0.63;;;;;;;;;;6337114;22;20011;-78
2023/10/22 00:17:53;;;;;;;1.90;0.63;;;;;;;;;;6338157;22;20018;-78
2023/10/22 00:20:19;;;;;;;2.13;0.50;;;;;;;;;;6337279;22;20090;-78
2023/10/22 00:22:46;;;;;;;1.42;0.55;;;;;;;;;;6283753;22;20118;-78
2023/10/22 00:25:12;;;;;;;0.50;0.40;;;;;;;;;;6308757;22;20385;-78
2023/10/22 00:27:38;;;;;;;2.05;0.40;;;;;;;;;;6283705;22;20015;-78
2023/10/22 00:30:05;;;;;;;2.38;0.60;;;;;;;;;;6309368;22;20055;-78
2023/10/22 00:32:32;;;;;;;1.13;0.55;;;;;;;;;;6338602;22;20014;-78
2023/10/22 00:34:58;;;;;;;2.05;0.50;;;;;;;;;;6336939;22;20044;-78
2023/10/22 00:37:24;;;;;;;2.67;0.75;;;;;;;;;;6336916;22;20011;-78
2023/10/22 00:39:50;;;;;;;0.50;0.30;;;;;;;;;;6309896;22;20347;-78
2023/10/22 00:42:16;;;;;;;2.28;0.60;;;;;;;;;;6337512;22;20063;-78
2023/10/22 00:44:42;;;;;;;2.13;0.50;;;;;;;;;;6336879;22;20042;-78
2023/10/22 00:47:14;;;;;;;1.80;0.47;;;;;;;;;;6337177;22;20011;-78
2023/10/22 00:49:40;;;;;;;1.25;0.47;;;;;;;;;;6308720;22;20150;-78
2023/10/22 00:52:06;;;;;;;1.85;0.35;;;;;;;;;;6335441;22;20015;-78
2023/10/22 00:54:33;;;;;;;1.02;0.40;;;;;;;;;;6337311;22;20007;-78
2023/10/22 00:57:00;;;;;;;3.88;0.60;;;;;;;;;;6336859;22;20018;-78
2023/10/22 00:59:26;;;;;;;1.13;0.40;;;;;;;;;;6308931;22;20093;-78
2023/10/22 01:01:52;;;;;;;0.95;0.50;;;;;;;;;;6308180;22;20053;-78
2023/10/22 01:04:18;;;;;;;1.70;0.50;;;;;;;;;;6307764;22;20021;-78
2023/10/22 01:06:44;;;;;;;2.80;0.70;;;;;;;;;;6308777;22;20348;-78
2023/10/22 01:09:11;;;;;;;1.58;0.50;;;;;;;;;;6336762;22;20014;-78
2023/10/22 01:11:38;;;;;;;1.55;0.50;;;;;;;;;;6317149;22;20011;-78
2023/10/22 01:14:04;;;;;;;1.45;0.60;;;;;;;;;;6306305;22;20034;-77
2023/10/22 01:16:30;;;;;;;1.00;0.30;;;;;;;;;;6305904;22;20015;-78
2023/10/22 01:18:56;;;;;;;2.33;0.57;;;;;;;;;;6304704;22;20008;-78
2023/10/22 01:21:28;;;;;;;1.27;0.50;;;;;;;;;;6306535;22;20011;-78
2023/10/22 01:23:54;;;;;;;3.65;0.63;;;;;;;;;;6278313;22;20314;-78
2023/10/22 01:26:20;;;;;;;0.77;0.43;;;;;;;;;;6304731;22;20017;-78
2023/10/22 01:28:46;;;;;;;1.75;0.60;;;;;;;;;;6305949;22;20008;-78
2023/10/22 01:31:16;;;;;;;0.77;0.30;;;;;;;;;;6305000;22;20011;-78
2023/10/22 01:33:42;;;;;;;1.80;0.50;;;;;;;;;;6306160;22;20019;-78
2023/10/22 01:36:08;;;;;;;1.35;0.50;;;;;;;;;;6252280;22;20094;-78
2023/10/22 01:38:34;;;;;;;1.38;0.43;;;;;;;;;;6252122;22;20025;-78
2023/10/22 01:41:04;;;;;;;1.73;0.77;;;;;;;;;;6277567;22;20011;-78
2023/10/22 01:43:30;;;;;;;1.60;0.60;;;;;;;;;;6305032;22;20069;-78
2023/10/22 01:45:56;;;;;;;3.78;0.60;;;;;;;;;;6306271;22;20019;-78
2023/10/22 01:48:22;;;;;;;0.43;0.30;;;;;;;;;;6305573;22;20011;-78
2023/10/22 01:50:48;;;;;;;1.08;0.50;;;;;;;;;;6305019;22;20317;-78
2023/10/22 01:53:14;;;;;;;0.93;0.40;;;;;;;;;;6304095;22;20459;-78
2023/10/22 01:55:40;;;;;;;1.83;0.50;;;;;;;;;;6304415;22;20137;-78
2023/10/22 01:58:06;;;;;;;1.38;0.45;;;;;;;;;;6303177;22;20046;-78
2023/10/22 02:00:32;;;;;;;0.63;0.30;;;;;;;;;;6304115;22;20065;-78
2023/10/22 02:02:58;;;;;;;0.95;0.50;;;;;;;;;;6276726;22;20016;-78
2023/10/22 02:05:24;;;;;;;1.48;0.55;;;;;;;;;;6303452;22;20015;-78
2023/10/22 02:07:51;;;;;;;2.35;0.60;;;;;;;;;;6303814;22;20015;-78
2023/10/22 02:10:17;;;;;;;1.85;0.50;;;;;;;;;;6303880;22;20015;-77
2023/10/22 02:12:44;;;;;;;1.30;0.52;;;;;;;;;;6304502;22;20017;-78
2023/10/22 02:15:10;;;;;;;1.30;0.57;;;;;;;;;;6276254;22;20023;-78
2023/10/22 02:17:37;;;;;;;2.13;0.90;;;;;;;;;;6277358;22;20022;-78
2023/10/22 02:20:03;;;;;;;2.28;0.35;;;;;;;;;;6303164;22;20057;-78
2023/10/22 02:22:29;;;;;;;1.67;0.50;;;;;;;;;;6303998;22;20012;-78
2023/10/22 02:24:56;;;;;;;3.08;0.60;;;;;;;;;;6304187;22;20309;-78
2023/10/22 02:27:22;;;;;;;0.88;0.40;;;;;;;;;;6275443;22;20018;-78
2023/10/22 02:29:48;;;;;;;1.65;0.65;;;;;;;;;;6304701;22;20016;-78
2023/10/22 02:32:14;;;;;;;2.78;0.50;;;;;;;;;;6304085;22;20015;-77
2023/10/22 02:34:40;;;;;;;3.03;0.60;;;;;;;;;;6304914;22;20023;-77
2023/10/22 02:37:06;;;;;;;1.23;0.90;;;;;;;;;;6277705;22;20021;-77
2023/10/22 02:39:32;;;;;;;3.08;1.23;;;;;;;;;;6305711;22;20015;-77
2023/10/22 02:41:58;;;;;;;1.70;0.57;;;;;;;;;;6305275;22;20063;-77
2023/10/22 02:44:24;;;;;;;1.13;0.50;;;;;;;;;;6306363;22;20066;-78
2023/10/22 02:46:51;;;;;;;1.50;0.52;;;;;;;;;;6306116;22;20007;-78
2023/10/22 02:49:16;;;;;;;1.05;0.60;;;;;;;;;;6306145;22;20015;-78
2023/10/22 02:51:42;;;;;;;0.93;0.50;;;;;;;;;;6305472;22;20020;-78
2023/10/22 02:54:08;;;;;;;0.68;0.38;;;;;;;;;;6277327;22;20439;-78
2023/10/22 02:56:34;;;;;;;1.40;0.60;;;;;;;;;;6278084;22;20019;-78
2023/10/22 02:59:00;;;;;;;1.15;0.40;;;;;;;;;;6278392;22;20023;-78
2023/10/22 03:01:26;;;;;;;1.20;0.50;;;;;;;;;;6305936;22;20040;-78
2023/10/22 03:03:53;;;;;;;0.60;0.40;;;;;;;;;;6306141;22;20011;-78
2023/10/22 03:06:18;;;;;;;1.75;0.40;;;;;;;;;;6277520;22;20082;-78
2023/10/22 03:08:44;;;;;;;0.50;0.50;;;;;;;;;;6306235;22;20047;-78
2023/10/22 03:11:15;;;;;;;2.78;0.73;;;;;;;;;;6304223;22;20047;-78
2023/10/22 03:13:42;;;;;;;1.85;0.55;;;;;;;;;;6305612;22;20126;-78
2023/10/22 03:16:11;;;;;;;2.40;0.50;;;;;;;;;;6305035;22;20019;-77
2023/10/22 03:18:37;;;;;;;0.75;0.40;;;;;;;;;;6305875;22;20379;-77
2023/10/22 03:21:10;;;;;;;0.65;0.40;;;;;;;;;;6304447;22;20015;-77
2023/10/22 03:23:40;;;;;;;0.93;0.65;;;;;;;;;;6305260;22;20440;-77
2023/10/22 03:26:06;;;;;;;0.57;0.50;;;;;;;;;;6304634;22;20018;-77
2023/10/22 03:28:32;;;;;;;1.15;0.60;;;;;;;;;;6279159;22;20844;-78
2023/10/22 03:31:03;;;;;;;2.55;0.52;;;;;;;;;;6305881;22;20068;-78
2023/10/22 03:33:29;;;;;;;0.60;0.50;;;;;;;;;;6305439;22;20328;-78
2023/10/22 03:35:55;;;;;;;0.45;0.40;;;;;;;;;;6277425;22;20015;-78
2023/10/22 03:38:21;;;;;;;1.23;0.57;;;;;;;;;;6304115;22;20018;-78
2023/10/22 03:40:47;;;;;;;1.88;0.43;;;;;;;;;;6304394;22;20463;-78
2023/10/22 03:43:13;;;;;;;0.68;0.43;;;;;;;;;;6304278;22;20019;-78
2023/10/22 03:45:39;;;;;;;2.15;0.82;;;;;;;;;;6305821;22;20497;-78
2023/10/22 03:48:05;;;;;;;1.98;0.60;;;;;;;;;;6304337;22;20018;-78
2023/10/22 03:50:31;;;;;;;0.75;0.43;;;;;;;;;;6304732;22;20038;-78
2023/10/22 03:52:57;;;;;;;1.95;0.60;;;;;;;;;;6304800;22;20088;-78
2023/10/22 03:55:23;;;;;;;2.03;0.65;;;;;;;;;;6304539;22;20026;-78
2023/10/22 03:57:49;;;;;;;1.70;0.50;;;;;;;;;;6305372;22;20015;-78
2023/10/22 04:00:17;;;;;;;1.85;0.63;;;;;;;;;;6305188;22;20033;-77
2023/10/22 04:02:43;;;;;;;1.00;0.60;;;;;;;;;;6305851;22;20015;-77
2023/10/22 04:05:09;;;;;;;1.23;0.63;;;;;;;;;;6303876;22;20119;-78
2023/10/22 04:07:35;;;;;;;2.85;0.80;;;;;;;;;;6305357;22;20368;-77
2023/10/22 04:10:03;;;;;;;1.85;0.75;;;;;;;;;;6276709;22;20064;-77
2023/10/22 04:12:32;;;;;;;1.70;0.60;;;;;;;;;;6305023;22;20027;-77
2023/10/22 04:14:58;;;;;;;1.80;0.77;;;;;;;;;;6304766;22;20121;-77
2023/10/22 04:17:24;;;;;;;2.72;0.63;;;;;;;;;;6277499;22;20019;-77
2023/10/22 04:19:50;;;;;;;1.00;0.60;;;;;;;;;;6275876;22;20038;-77
2023/10/22 04:22:16;;;;;;;3.00;0.60;;;;;;;;;;6303440;22;20011;-77
2023/10/22 04:24:42;;;;;;;1.25;0.70;;;;;;;;;;6304734;22;20507;-77
2023/10/22 04:27:08;;;;;;;0.77;0.60;;;;;;;;;;6304421;22;20019;-77
2023/10/22 04:29:34;;;;;;;0.60;0.40;;;;;;;;;;6276316;22;20441;-77
2023/10/22 04:31:59;;;;;;;1.40;0.50;;;;;;;;;;6304573;22;20007;-77
2023/10/22 04:34:25;;;;;;;0.70;0.70;;;;;;;;;;6277232;22;20027;-77
2023/10/22 04:36:51;;;;;;;4.03;1.50;;;;;;;;;;6277449;22;20015;-77
2023/10/22 04:39:17;;;;;;;1.00;0.70;;;;;;;;;;6304440;22;20440;-77
2023/10/22 04:41:43;;;;;;;1.73;0.70;;;;;;;;;;6278039;22;20065;-77
2023/10/22 04:44:09;;;;;;;1.85;0.70;;;;;;;;;;6276821;22;20019;-77
2023/10/22 04:46:35;;;;;;;2.20;1.02;;;;;;;;;;6276808;22;20061;-77
2023/10/22 04:49:01;;;;;;;1.30;0.70;;;;;;;;;;6275718;22;20007;-77
2023/10/22 04:51:27;;;;;;;1.17;0.40;;;;;;;;;;6273879;22;20104;-78
2023/10/22 04:53:53;;;;;;;1.30;0.50;;;;;;;;;;6305257;22;20007;-78
2023/10/22 04:56:19;;;;;;;1.30;0.60;;;;;;;;;;6304530;22;20017;-78
2023/10/22 04:58:45;;;;;;;1.23;0.60;;;;;;;;;;6304801;22;20391;-78
2023/10/22 05:01:11;;;;;;;1.92;0.88;;;;;;;;;;6275807;22;20011;-78
2023/10/22 05:03:37;;;;;;;1.50;0.70;;;;;;;;;;6277387;22;20019;-80
2023/10/22 05:06:06;;;;;;;0.45;0.45;;;;;;;;;;6250652;22;20049;-78
2023/10/22 05:08:32;;;;;;;0.95;0.65;;;;;;;;;;6276610;22;20086;-78
2023/10/22 05:10:58;;;;;;;2.45;0.85;;;;;;;;;;6304685;22;20341;-78
2023/10/22 05:13:24;;;;;;;1.25;0.65;;;;;;;;;;6305040;22;20377;-78
2023/10/22 05:15:50;;;;;;;0.57;0.57;;;;;;;;;;6303917;22;20023;-78
2023/10/22 05:18:16;;;;;;;0.68;0.68;;;;;;;;;;6303898;22;20478;-78
2023/10/22 05:20:42;;;;;;;0.77;0.65;;;;;;;;;;6303922;22;20015;-77
2023/10/22 05:23:08;;;;;;;2.10;0.77;;;;;;;;;;6302641;22;20065;-78
2023/10/22 05:25:36;;;;;;;0.65;0.60;;;;;;;;;;6303382;22;20019;-77
2023/10/22 05:28:02;;;;;;;1.42;0.80;;;;;;;;;;6303201;22;20090;-77
2023/10/22 05:30:30;;;;;;;0.88;0.80;;;;;;;;;;6304193;22;20007;-77
2023/10/22 05:32:56;;;;;;;1.73;1.00;;;;;;;;;;6303656;22;20007;-77
2023/10/22 05:35:22;;;;;;;1.15;0.50;;;;;;;;;;6301321;22;20015;-77
2023/10/22 05:37:49;;;;;;;0.55;0.47;;;;;;;;;;6277108;22;20067;-77
2023/10/22 05:40:16;;;;;;;2.97;0.50;;;;;;;;;;6303441;22;20030;-77
2023/10/22 05:42:42;;;;;;;0.60;0.60;;;;;;;;;;6276630;22;20433;-78
2023/10/22 05:45:09;;;;;;;1.40;0.43;;;;;;;;;;6274607;22;20020;-78
2023/10/22 05:47:35;;;;;;;0.98;0.30;;;;;;;;;;6303405;22;20015;-77
2023/10/22 05:50:01;;;;;;;0.47;0.30;;;;;;;;;;6250276;22;20022;-76
2023/10/22 05:52:28;;;;;;;0.40;0.30;;;;;;;;;;6276170;22;20043;-77
2023/10/22 05:54:57;;;;;;;1.50;0.30;;;;;;;;;;6303441;22;20011;-77
2023/10/22 05:57:27;;;;;;;0.57;0.30;;;;;;;;;;6304314;22;20332;-77
2023/10/22 05:59:53;;;;;;;0.80;0.40;;;;;;;;;;6302634;22;20022;-77
2023/10/22 06:02:19;;;;;;;1.20;0.60;;;;;;;;;;6303190;22;20016;-77
2023/10/22 06:04:45;;;;;;;0.50;0.38;;;;;;;;;;6303783;22;20336;-78
2023/10/22 06:07:11;;;;;;;0.47;0.20;;;;;;;;;;6302884;22;20023;-77
2023/10/22 06:09:37;;;;;;;1.48;0.30;;;;;;;;;;6302483;22;20015;-77
2023/10/22 06:12:03;;;;;;;3.55;0.50;;;;;;;;;;6301732;22;20018;-77
2023/10/22 06:14:29;;;;;;;0.55;0.38;;;;;;;;;;6336574;22;20014;-77
2023/10/22 06:16:55;;;;;;;1.00;0.40;;;;;;;;;;6336285;22;20021;-78
2023/10/22 06:19:21;;;;;;;0.60;0.43;;;;;;;;;;6308927;22;20010;-78
2023/10/22 06:21:47;;;;;;;5.07;1.13;;;;;;;;;;6338018;22;20011;-77
2023/10/22 06:24:13;;;;;;;1.77;0.95;;;;;;;;;;6337671;22;20332;-78
2023/10/22 06:26:40;;;;;;;1.65;1.00;;;;;;;;;;6338336;22;20011;-78
2023/10/22 06:29:06;;;;;;;3.20;1.20;;;;;;;;;;6310220;22;20064;-77
2023/10/22 06:31:32;;;;;;;2.13;1.38;;;;;;;;;;6336662;22;20132;-78
2023/10/22 06:33:58;;;;;;;3.05;1.20;;;;;;;;;;6335419;22;20018;-78
2023/10/22 06:36:24;;;;;;;2.22;1.52;;;;;;;;;;6309631;22;20019;-78
2023/10/22 06:38:50;;;;;;;2.83;1.90;;;;;;;;;;6337343;22;20076;-77
2023/10/22 06:41:17;;;;;;;3.58;2.42;;;;;;;;;;6336723;22;20571;-78
2023/10/22 06:43:44;;;;;;;2.65;1.60;;;;;;;;;;6309318;22;20011;-77
2023/10/22 06:46:10;;;;;;;3.00;1.63;;;;;;;;;;6336933;22;20011;-78
2023/10/22 06:48:36;;;;;;;3.92;2.42;;;;;;;;;;6308701;22;20549;-78
2023/10/22 06:51:03;;;;;;;4.45;2.00;;;;;;;;;;6306445;22;20068;-78
2023/10/22 06:53:30;;;;;;;3.80;1.70;;;;;;;;;;6309629;22;20461;-78
2023/10/22 06:55:56;;;;;;;4.47;1.83;;;;;;;;;;6337598;22;20045;-79
2023/10/22 06:58:22;;;;;;;2.95;1.92;;;;;;;;;;6337907;22;20071;-79
2023/10/22 07:00:48;;;;;;;6.93;1.98;;;;;;;;;;6337997;22;20452;-79
2023/10/22 07:03:14;;;;;;;4.78;2.08;;;;;;;;;;6336795;22;20501;-79
2023/10/22 07:05:40;;;;;;;5.30;2.50;;;;;;;;;;6337993;22;20015;-78
2023/10/22 07:08:06;;;;;;;4.68;2.05;;;;;;;;;;6336817;22;20129;-79
2023/10/22 07:10:32;;;;;;;5.05;2.28;;;;;;;;;;6331749;22;20014;-79
2023/10/22 07:12:58;;;;;;;3.53;2.15;;;;;;;;;;6306826;22;20025;-78
2023/10/22 07:15:24;;;;;;;2.65;1.98;;;;;;;;;;6279572;22;20073;-78
2023/10/22 07:17:50;;;;;;;2.58;2.38;;;;;;;;;;6278819;22;20011;-79
2023/10/22 07:20:17;;;;;;;1.95;1.65;;;;;;;;;;6306445;22;20022;-79
2023/10/22 07:22:43;;;;;;;4.88;2.00;;;;;;;;;;6276423;22;20025;-79
2023/10/22 07:25:09;;;;;;;3.40;1.60;;;;;;;;;;6304950;22;20518;-77
2023/10/22 07:27:35;;;;;;;6.22;1.80;;;;;;;;;;6301685;22;20015;-77
2023/10/22 07:30:02;;;;;;;3.13;1.90;;;;;;;;;;6302053;22;20022;-77
2023/10/22 07:32:28;;;;;;;1.58;1.35;;;;;;;;;;6304392;22;20007;-78
2023/10/22 07:34:54;;;;;;;2.60;1.90;;;;;;;;;;6303005;22;20520;-78
2023/10/22 07:37:20;;;;;;;2.45;1.98;;;;;;;;;;6276429;22;20441;-78
2023/10/22 07:39:46;;;;;;;5.80;1.90;;;;;;;;;;6278090;22;20026;-78
2023/10/22 07:42:12;;;;;;;4.40;1.52;;;;;;;;;;6303629;22;20076;-78
2023/10/22 07:44:38;;;;;;;2.20;1.48;;;;;;;;;;6276913;22;20015;-78
2023/10/22 07:47:04;;;;;;;2.25;1.40;;;;;;;;;;6274328;22;20463;-77
2023/10/22 07:49:30;;;;;;;2.05;1.58;;;;;;;;;;6275946;22;20022;-77
2023/10/22 07:51:56;;;;;;;2.72;1.60;;;;;;;;;;6276473;22;20011;-78
2023/10/22 07:54:22;;;;;;;1.52;1.20;;;;;;;;;;6305261;22;20441;-78
2023/10/22 07:56:48;;;;;;;3.80;1.42;;;;;;;;;;6305391;22;20077;-78
2023/10/22 07:59:14;;;;;;;5.60;1.80;;;;;;;;;;6304596;22;20019;-78
2023/10/22 08:01:40;;;;;;;4.15;2.55;;;;;;;;;;6305344;22;20322;-78
2023/10/22 08:04:07;;;;;;;3.45;1.60;;;;;;;;;;6304980;22;20011;-78
2023/10/22 08:06:33;;;;;;;1.83;1.40;;;;;;;;;;6304546;22;20517;-78
2023/10/22 08:08:59;;;;;;;2.33;1.50;;;;;;;;;;6305083;22;20015;-78
2023/10/22 08:11:25;;;;;;;4.55;1.90;;;;;;;;;;6307728;22;20070;-78
2023/10/22 08:13:51;;;;;;;4.50;2.08;;;;;;;;;;6304460;22;20100;-77
2023/10/22 08:16:17;;;;;;;2.20;1.60;;;;;;;;;;6304468;22;20029;-77
2023/10/22 08:18:43;;;;;;;1.77;1.40;;;;;;;;;;6304414;22;20022;-77
2023/10/22 08:21:10;;;;;;;3.35;1.60;;;;;;;;;;6304143;22;20065;-77
2023/10/22 08:23:38;;;;;;;4.45;1.80;;;;;;;;;;6277222;22;20015;-77
2023/10/22 08:26:04;;;;;;;3.67;1.58;;;;;;;;;;6304220;22;20069;-77
2023/10/22 08:28:30;;;;;;;4.13;1.80;;;;;;;;;;6304736;22;20011;-77
2023/10/22 08:30:56;;;;;;;3.03;1.33;;;;;;;;;;6303604;22;20074;-77
2023/10/22 08:33:22;;;;;;;3.70;1.60;;;;;;;;;;6304543;22;20082;-77
2023/10/22 08:35:48;;;;;;;1.95;1.20;;;;;;;;;;6305464;22;20093;-77
2023/10/22 08:38:15;;;;;;;2.67;1.63;;;;;;;;;;6304396;22;20503;-77
2023/10/22 08:40:42;;;;;;;2.53;1.27;;;;;;;;;;6305231;22;20563;-77
2023/10/22 08:43:17;;;;;;;2.05;1.20;;;;;;;;;;6304665;22;20015;-77
2023/10/22 08:45:46;;;;;;;4.00;1.83;;;;;;;;;;6303459;22;20011;-77
2023/10/22 08:48:12;;;;;;;2.05;1.40;;;;;;;;;;6276678;22;20019;-77
2023/10/22 08:50:38;;;;;;;2.17;1.75;;;;;;;;;;6305040;22;20340;-77
2023/10/22 08:53:04;;;;;;;1.70;1.60;;;;;;;;;;6276862;22;20467;-77
2023/10/22 08:55:31;;;;;;;5.82;1.83;;;;;;;;;;6304653;22;20011;-77
2023/10/22 08:57:58;;;;;;;3.40;1.73;;;;;;;;;;6304589;22;20086;-77
2023/10/22 09:00:25;;;;;;;3.45;1.58;;;;;;;;;;6304306;22;20017;-77
2023/10/22 09:02:52;;;;;;;2.97;1.40;;;;;;;;;;6276139;22;20038;-77
2023/10/22 09:05:19;;;;;;;2.33;1.73;;;;;;;;;;6304205;22;20371;-77
2023/10/22 09:07:52;;;;;;;1.52;1.30;;;;;;;;;;6305000;22;20349;-77
2023/10/22 09:10:29;;;;;;;2.85;1.40;;;;;;;;;;6304056;22;20141;-77
2023/10/22 09:13:07;;;;;;;3.38;1.70;;;;;;;;;;6302911;22;20081;-77
2023/10/22 09:15:38;;;;;;;1.50;1.27;;;;;;;;;;6276977;22;20325;-77
2023/10/22 09:18:04;;;;;;;4.22;1.50;;;;;;;;;;6301651;22;20142;-77
2023/10/22 09:20:30;;;;;;;2.38;1.65;;;;;;;;;;6301910;22;20336;-77
2023/10/22 09:23:16;;;;;;;2.75;1.42;;;;;;;;;;6304136;22;20023;-77
2023/10/22 09:25:42;;;;;;;3.40;1.48;;;;;;;;;;6304647;22;20060;-77
2023/10/22 09:28:13;;;;;;;1.50;1.40;;;;;;;;;;6302251;22;20026;-77
2023/10/22 09:30:40;;;;;;;;;;;;;;;;;;6305405;22;20387;-77
2023/10/22 09:33:08;;;;;;;2.70;1.30;;;;;;;;;;6304237;22;19911;-77
2023/10/22 09:35:35;;;;;;;3.63;1.33;;;;;;;;;;6301891;22;20011;-77
2023/10/22 09:38:01;;;;;;;1.27;1.08;;;;;;;;;;6303385;22;20038;-77
2023/10/22 09:40:27;;;;;;;2.35;1.13;;;;;;;;;;6304561;22;20452;-77
2023/10/22 09:42:53;;;;;;;2.50;1.60;;;;;;;;;;6302439;22;20016;-77
2023/10/22 09:45:20;;;;;;;4.47;1.35;;;;;;;;;;6304551;22;20482;-77
2023/10/22 09:47:48;;;;;;;2.17;1.10;;;;;;;;;;6306737;22;20015;-77
2023/10/22 09:50:18;;;;;;;1.90;1.60;;;;;;;;;;6304882;22;20385;-77
2023/10/22 09:52:44;;;;;;;2.70;1.38;;;;;;;;;;6306636;22;20100;-77
2023/10/22 09:55:13;;;;;;;3.20;1.52;;;;;;;;;;6304217;22;20026;-77
2023/10/22 09:57:40;;;;;;;1.63;1.00;;;;;;;;;;6305564;22;20086;-78
2023/10/22 10:00:12;;;;;;;2.92;1.20;;;;;;;;;;6305948;22;20022;-78
2023/10/22 10:02:39;;;;;;;1.00;0.90;;;;;;;;;;6301910;22;20030;-78
2023/10/22 10:05:06;;;;;;;3.75;0.93;;;;;;;;;;6307094;22;20019;-80
2023/10/22 10:07:33;;;;;;;2.75;1.48;;;;;;;;;;6308193;22;20015;-80
2023/10/22 10:10:00;;;;;;;2.60;1.00;;;;;;;;;;6307892;22;20061;-81
2023/10/22 10:12:28;;;;;;;1.75;1.27;;;;;;;;;;6314893;22;20018;-79
2023/10/22 10:14:54;;;;;;;2.20;1.00;;;;;;;;;;6314569;22;20011;-80
2023/10/22 10:17:21;;;;;;;1.98;1.13;;;;;;;;;;6315041;22;20010;-80
2023/10/22 10:19:47;;;;;;;1.80;1.10;;;;;;;;;;6316155;22;20014;-80
2023/10/22 10:22:33;;;;;;;3.15;0.90;;;;;;;;;;6342552;22;20086;-80
2023/10/22 10:25:20;;;;;;;1.38;0.60;;;;;;;;;;6288034;22;20057;-80
2023/10/22 10:27:50;;;;;;;2.47;0.93;;;;;;;;;;6317318;22;20037;-80
2023/10/22 10:30:17;;;;;;;3.53;0.77;;;;;;;;;;6343336;22;20029;-81
2023/10/22 10:32:43;;;;;;;1.70;0.77;;;;;;;;;;6339589;22;20010;-81
2023/10/22 10:35:09;;;;;;;1.10;0.93;;;;;;;;;;6341470;22;20018;-80
2023/10/22 10:37:35;;;;;;;1.00;0.80;;;;;;;;;;6315372;22;20019;-80
2023/10/22 10:40:04;;;;;;;0.85;0.80;;;;;;;;;;6342205;22;20037;-80
2023/10/22 10:42:30;;;;;;;2.10;1.13;;;;;;;;;;6345088;22;20011;-80
2023/10/22 10:44:59;;;;;;;2.53;1.08;;;;;;;;;;6345257;22;20512;-80
2023/10/22 10:47:25;;;;;;;1.73;1.10;;;;;;;;;;6342757;22;20071;-80
2023/10/22 10:50:05;;;;;;;2.75;1.60;;;;;;;;;;6342220;22;20015;-80
2023/10/22 10:52:32;;;;;;;1.27;1.17;;;;;;;;;;6315567;22;20009;-80
2023/10/22 10:54:58;;;;;;;3.45;1.30;;;;;;;;;;6340087;22;20011;-80
2023/10/22 10:57:34;;;;;;;2.08;1.05;;;;;;;;;;6343732;22;20018;-81
2023/10/22 11:00:00;;;;;;;3.45;1.20;;;;;;;;;;6341952;22;20053;-81
2023/10/22 11:02:26;;;;;;;1.33;1.10;;;;;;;;;;6315145;22;20030;-81
2023/10/22 11:04:52;;;;;;;2.25;1.45;;;;;;;;;;6340829;22;20010;-81
2023/10/22 11:07:19;;;;;;;1.88;1.50;;;;;;;;;;6314118;22;20087;-81
2023/10/22 11:09:47;;;;;;;1.30;1.20;;;;;;;;;;6342697;22;20031;-80
2023/10/22 11:12:13;;;;;;;2.53;1.38;;;;;;;;;;6314832;22;20050;-81
2023/10/22 11:14:39;;;;;;;4.75;1.52;;;;;;;;;;6314776;22;20019;-81
2023/10/22 11:17:05;;;;;;;1.55;1.33;;;;;;;;;;6343061;22;20040;-81
2023/10/22 11:19:32;;;;;;;3.35;1.40;;;;;;;;;;6315038;22;20010;-81
2023/10/22 11:21:58;;;;;;;2.67;1.20;;;;;;;;;;6341965;22;20011;-81
2023/10/22 11:24:31;;;;;;;2.08;1.40;;;;;;;;;;6314727;22;20034;-80
2023/10/22 11:26:58;;;;;;;3.35;1.75;;;;;;;;;;6313038;22;20041;-81
2023/10/22 11:29:24;;;;;;;1.58;1.38;;;;;;;;;;6342778;22;20063;-81
2023/10/22 11:31:51;;;;;;;2.08;1.48;;;;;;;;;;6340049;22;20011;-81
2023/10/22 11:34:18;;;;;;;1.40;1.15;;;;;;;;;;6341643;22;20019;-80
2023/10/22 11:36:44;;;;;;;2.85;1.20;;;;;;;;;;6341061;22;20313;-81
2023/10/22 11:39:20;;;;;;;2.35;1.23;;;;;;;;;;6343693;22;20021;-81
2023/10/22 11:41:46;;;;;;;1.70;1.13;;;;;;;;;;6316506;22;20018;-80
2023/10/22 11:44:31;;;;;;;1.52;1.20;;;;;;;;;;6314765;22;20015;-80
2023/10/22 11:47:23;;;;;;;3.75;1.33;;;;;;;;;;6313654;22;20018;-80
2023/10/22 11:49:49;;;;;;;1.52;1.15;;;;;;;;;;6342463;22;20336;-81
2023/10/22 11:52:34;;;;;;;1.85;0.80;;;;;;;;;;6315101;22;20066;-80
2023/10/22 11:55:00;;;;;;;1.60;0.90;;;;;;;;;;6343320;22;20067;-81
2023/10/22 11:57:27;;;;;;;2.90;1.13;;;;;;;;;;6342791;22;20014;-80
2023/10/22 11:59:53;;;;;;;1.65;1.08;;;;;;;;;;6344809;22;20014;-81
2023/10/22 12:02:19;;;;;;;2.70;0.93;;;;;;;;;;6316204;22;20046;-80
2023/10/22 12:04:47;;;;;;;1.75;0.63;;;;;;;;;;6314954;22;20382;-83
2023/10/22 12:07:13;;;;;;;1.08;0.57;;;;;;;;;;6313275;22;20022;-82
2023/10/22 12:09:39;;;;;;;2.25;0.80;;;;;;;;;;6312608;22;20022;-82
2023/10/22 12:12:06;;;;;;;1.88;0.70;;;;;;;;;;6313791;22;20018;-82
2023/10/22 12:14:32;;;;;;;1.50;0.65;;;;;;;;;;6341929;22;20437;-83
2023/10/22 12:16:58;;;;;;;1.95;0.70;;;;;;;;;;6313691;22;20014;-82
2023/10/22 12:19:24;;;;;;;0.63;0.50;;;;;;;;;;6312955;22;20040;-82
2023/10/22 12:21:50;;;;;;;1.58;0.85;;;;;;;;;;6313741;22;20019;-83
2023/10/22 12:24:16;;;;;;;1.02;0.80;;;;;;;;;;6341674;22;20006;-82
2023/10/22 12:26:42;;;;;;;0.82;0.60;;;;;;;;;;6341831;22;20049;-82
2023/10/22 12:29:08;;;;;;;1.15;0.73;;;;;;;;;;6342679;22;20019;-82
2023/10/22 12:31:34;;;;;;;1.92;0.90;;;;;;;;;;6315583;22;20072;-81
2023/10/22 12:34:00;;;;;;;1.33;0.90;;;;;;;;;;6342340;22;20011;-81
2023/10/22 12:36:26;;;;;;;1.33;0.73;;;;;;;;;;6341567;22;20019;-82
2023/10/22 12:38:54;;;;;;;1.90;0.70;;;;;;;;;;6343245;22;20429;-82
2023/10/22 12:41:20;;;;;;;5.18;1.00;;;;;;;;;;6315036;22;20042;-82
2023/10/22 12:43:46;;;;;;;1.30;0.68;;;;;;;;;;6314267;22;20021;-82
2023/10/22 12:46:12;;;;;;;1.85;0.77;;;;;;;;;;6314527;22;20038;-82
2023/10/22 12:48:38;;;;;;;1.17;0.60;;;;;;;;;;6342781;22;20459;-81
2023/10/22 12:51:04;;;;;;;1.25;0.43;;;;;;;;;;6313363;22;20099;-81
2023/10/22 12:53:30;;;;;;;1.05;0.60;;;;;;;;;;6341395;22;20076;-81
2023/10/22 12:55:57;;;;;;;0.63;0.57;;;;;;;;;;6345308;22;20372;-82
2023/10/22 12:58:23;;;;;;;1.27;0.57;;;;;;;;;;6308881;22;20053;-83
2023/10/22 13:00:49;;;;;;;1.98;0.80;;;;;;;;;;6309588;22;20118;-83
2023/10/22 13:03:15;;;;;;;1.45;0.57;;;;;;;;;;6339589;22;20014;-81
2023/10/22 13:05:42;;;;;;;2.38;0.60;;;;;;;;;;6344267;22;20440;-81
2023/10/22 13:08:09;;;;;;;1.35;0.50;;;;;;;;;;6347174;22;20022;-80
2023/10/22 13:10:38;;;;;;;1.00;0.70;;;;;;;;;;6344742;22;20078;-81
2023/10/22 13:13:04;;;;;;;3.08;0.80;;;;;;;;;;6315261;22;20039;-80
2023/10/22 13:15:31;;;;;;;2.40;0.50;;;;;;;;;;6289042;22;20030;-80
2023/10/22 13:17:57;;;;;;;2.25;0.75;;;;;;;;;;6287956;22;20460;-80
2023/10/22 13:20:23;;;;;;;0.50;0.50;;;;;;;;;;6287628;22;20015;-81
2023/10/22 13:22:49;;;;;;;1.05;0.63;;;;;;;;;;6315223;22;20007;-80
2023/10/22 13:25:15;;;;;;;4.00;0.65;;;;;;;;;;6316198;22;20015;-80
2023/10/22 13:27:41;;;;;;;2.58;0.70;;;;;;;;;;6317141;22;20015;-81
2023/10/22 13:30:08;;;;;;;1.17;0.68;;;;;;;;;;6316311;22;20015;-81
2023/10/22 13:32:34;;;;;;;0.60;0.60;;;;;;;;;;6315684;22;20072;-81
2023/10/22 13:34:59;;;;;;;0.82;0.52;;;;;;;;;;6288151;22;20011;-80
2023/10/22 13:37:25;;;;;;;1.23;0.65;;;;;;;;;;6288197;22;20008;-80
2023/10/22 13:39:52;;;;;;;1.48;0.40;;;;;;;;;;6289036;22;20054;-81
2023/10/22 13:42:18;;;;;;;0.60;0.35;;;;;;;;;;6288473;22;20079;-80
2023/10/22 13:44:45;;;;;;;0.43;0.30;;;;;;;;;;6263548;22;20015;-80
2023/10/22 13:47:11;;;;;;;0.77;0.32;;;;;;;;;;6289700;22;20015;-81
2023/10/22 13:49:37;;;;;;;1.38;0.40;;;;;;;;;;6287661;22;20391;-80
2023/10/22 13:52:04;;;;;;;1.23;0.32;;;;;;;;;;6289154;22;20038;-81
2023/10/22 13:54:30;;;;;;;0.57;0.32;;;;;;;;;;6289735;22;20042;-81
2023/10/22 13:56:56;;;;;;;0.40;0.28;;;;;;;;;;6290988;22;20019;-81
2023/10/22 13:59:22;;;;;;;0.90;0.43;;;;;;;;;;6290395;22;20055;-80
2023/10/22 14:01:48;;;;;;;0.95;0.50;;;;;;;;;;6318920;22;20011;-80
2023/10/22 14:04:14;;;;;;;1.67;0.50;;;;;;;;;;6317032;22;20029;-81
2023/10/22 14:06:40;;;;;;;0.35;0.35;;;;;;;;;;6316632;22;20019;-81
2023/10/22 14:09:06;;;;;;;1.88;0.40;;;;;;;;;;6314975;22;20012;-81
2023/10/22 14:11:32;;;;;;;0.73;0.40;;;;;;;;;;6303379;22;20041;-81
2023/10/22 14:13:58;;;;;;;0.47;0.32;;;;;;;;;;6319169;22;20026;-81
2023/10/22 14:16:24;;;;;;;1.38;0.40;;;;;;;;;;6319259;22;20042;-81
2023/10/22 14:18:50;;;;;;;0.98;0.30;;;;;;;;;;6320836;22;20025;-81
2023/10/22 14:21:18;;;;;;;2.13;0.47;;;;;;;;;;6320167;22;20519;-81
2023/10/22 14:23:44;;;;;;;1.15;0.45;;;;;;;;;;6320166;22;20017;-81
2023/10/22 14:26:10;;;;;;;0.93;0.40;;;;;;;;;;6347756;22;20007;-80
2023/10/22 14:28:36;;;;;;;0.60;0.40;;;;;;;;;;6348618;22;20340;-80
2023/10/22 14:31:08;;;;;;;0.10;0.10;;;;;;;;;;6346674;22;20022;-81
2023/10/22 14:33:34;;;;;;;0.80;0.28;;;;;;;;;;6351014;22;20011;-81
2023/10/22 14:36:01;;;;;;;0.40;0.20;;;;;;;;;;6322272;22;20015;-81
2023/10/22 14:38:28;;;;;;;1.33;0.50;;;;;;;;;;6351619;22;20022;-81
2023/10/22 14:40:54;;;;;;;0.40;0.30;;;;;;;;;;6350116;22;20062;-80